Waverly, KS

6:46 PM CST on March 04, 2015 (GMT -0600)
Emporia Municipal | Change Station
CLOSE
Current Station
Airport
Location: Emporia,
Elevation: 1207 ft
Nearby Weather Stations

Elev 1207 ft 38.33 °N, 96.19 °W | Updated 53 minutes ago

Overcast
Overcast
28 °F
Feels Like 21 °F
N
7
Wind Variable Wind from North

Today
High -- | Low -- °F
--% Chance of Precip.
Yesterday
High -- | Low -- °F
Precip. -- in
6:50 AM 6:18 PM
Full, 100% visible
Pressure 30.37 in
Visibility 10.0 miles
Clouds Mostly Cloudy 12000 ft
Windchill 21 °F
Dew Point 7 °F
Humidity 41%
Rainfall 0.01 in
Snow Depth Not available.
UV 0 out of 12
Pollen .20 out of 12
Air Quality Not available.
Flu Activity Not available.
METAR KEMP 042353Z AUTO 36006KT 10SM BKN120 M02/M14 A3031 RMK AO2 SLP283 T10221139 11017 21044 53012

More Conditions Fewer Conditions

Pressure 30.37 in
Visibility 10.0 miles
Clouds Mostly Cloudy 12000 ft
Windchill 21 °F
Dew Point 7 °F
Humidity 41%
Rainfall 0.01 in
Snow Depth Not available.
UV 0 out of 12
Pollen .20 out of 12
Air Quality Not available.
Flu Activity Not available.
METAR KEMP 042353Z AUTO 36006KT 10SM BKN120 M02/M14 A3031 RMK AO2 SLP283 T10221139 11017 21044 53012

More Conditions Fewer Conditions

10-Day Weather Forecast

Almanac

Astronomy

Mar. 04, 2015 Rise Set
Actual Time
Civil Twilight
Nautical Twilight
Astronomical Twilight
Moon
Length of Visible Light
Length of Day
Tomorrow will be .
, % of the Moon is Illuminated

Today's Extremes

State Highs State Lows

Community

WunderPhotos

Upload Photos

1,802,608 photos uploaded!

WunderBlogs® & News

Nearby

Air Quality

  Air Quality AQ Index Pollutant
Not available.

Snow Depth

Station Depth Elevation

Earthquake Activity

City Distance Mag. Time & Date
Minimum magnitude displayed is 2.5.

Coastal Water Temperatures

Place Temperature

Nearby Weather Stations